Terminal Aerodrome Forecast
Issued by NWS

Home | Current Version | Previous Version | Text Only | Print | Product List | Glossary On
Versions: 1 2 3 4 5 6 7 8 9 10 11 12
000
FTAK31 PANC 280550
TAFAIL
TAF
PAIL 280550Z 2806/2906 28008KT P6SM SCT200
     FM281400 23010KT P6SM VCSH BKN025
     FM281700 25011KT 3SM -RA OVC012
     FM290300 25007KT 5SM BR BKN030=

USA.gov is the U.S. government's official web portal to all federal, state and local government web resources and services.